UAE72 LFPG-OMDB
Flight info
| Callsign | UAE72 |
|---|---|
| Flight time | N/A |
| Altitude | 35000 |
| Route | LANVI DCT BEGAR DCT TRA DCT GAMSA DCT BIRGI DCT INGID DCT GOTAR DCT INVED DCT ARTAT UP975 ORMAN/N0487F370 UP975 EZS UL614 OTKEP UM688 RATVO M688 SIDAD P975 SESRU M677 VUTEB VUTEB4D/30L |
| Aircraft | B77W/H-SDE1E2E3FGHIJ2J3J4J5M1RWXY/LB1D1 |
Departure
| Time | N/A |
|---|---|
| Airport | Charles de Gaulle International Airport (LFPG) |
Arrival
| Time | 2026-05-03 20:38 |
|---|---|
| Airport | Dubai International Airport (OMDB) |
| Time | Latitude | Longitude | Altitude | Speed | Heading |
|---|---|---|---|---|---|
| 2026-05-03 20:15 | 25.32514 | 55.34606 | 7969 ft | 311 kts | 155° |
| 2026-05-03 20:15 | 25.30570 | 55.35693 | 7689 ft | 318 kts | 155° |
| 2026-05-03 20:15 | 25.28672 | 55.36773 | 7362 ft | 319 kts | 155° |
| 2026-05-03 20:15 | 25.26702 | 55.37909 | 7038 ft | 318 kts | 154° |
| 2026-05-03 20:16 | 25.24755 | 55.39042 | 6724 ft | 316 kts | 154° |
| 2026-05-03 20:16 | 25.22820 | 55.40173 | 6420 ft | 314 kts | 154° |
| 2026-05-03 20:16 | 25.20914 | 55.41288 | 6094 ft | 313 kts | 154° |
| 2026-05-03 20:16 | 25.19024 | 55.42393 | 5729 ft | 314 kts | 154° |
| 2026-05-03 20:17 | 25.17092 | 55.43523 | 5348 ft | 314 kts | 154° |
| 2026-05-03 20:17 | 25.15160 | 55.44653 | 5015 ft | 313 kts | 154° |
| 2026-05-03 20:17 | 25.13239 | 55.45776 | 4688 ft | 312 kts | 154° |
| 2026-05-03 20:17 | 25.11392 | 55.46993 | 4333 ft | 306 kts | 141° |
| 2026-05-03 20:18 | 25.10099 | 55.48800 | 3994 ft | 300 kts | 120° |
| 2026-05-03 20:18 | 25.09054 | 55.50786 | 3682 ft | 299 kts | 121° |
| 2026-05-03 20:18 | 25.07969 | 55.52753 | 3317 ft | 300 kts | 122° |
| 2026-05-03 20:18 | 25.06900 | 55.54727 | 2927 ft | 297 kts | 116° |
| 2026-05-03 20:19 | 25.06372 | 55.56907 | 2566 ft | 296 kts | 89° |
| 2026-05-03 20:19 | 25.06771 | 55.59067 | 2403 ft | 281 kts | 60° |
| 2026-05-03 20:19 | 25.07897 | 55.60686 | 2313 ft | 262 kts | 38° |
| 2026-05-03 20:19 | 25.09302 | 55.61902 | 2220 ft | 249 kts | 27° |
| 2026-05-03 20:20 | 25.10864 | 55.62493 | 2082 ft | 231 kts | 356° |
| 2026-05-03 20:20 | 25.12381 | 55.62051 | 2047 ft | 226 kts | 323° |
| 2026-05-03 20:20 | 25.13372 | 55.60776 | 2005 ft | 220 kts | 290° |
| 2026-05-03 20:20 | 25.13723 | 55.59151 | 2005 ft | 218 kts | 284° |
| 2026-05-03 20:21 | 25.14147 | 55.57575 | 1997 ft | 213 kts | 290° |
| 2026-05-03 20:21 | 25.14699 | 55.56108 | 1991 ft | 199 kts | 293° |
| 2026-05-03 20:21 | 25.15252 | 55.54777 | 2008 ft | 182 kts | 295° |
| 2026-05-03 20:21 | 25.15817 | 55.53605 | 1985 ft | 164 kts | 298° |
| 2026-05-03 20:22 | 25.16381 | 55.52544 | 1984 ft | 158 kts | 300° |
| 2026-05-03 20:22 | 25.16950 | 55.51503 | 1990 ft | 157 kts | 300° |
| 2026-05-03 20:22 | 25.17515 | 55.50478 | 1988 ft | 155 kts | 300° |
| 2026-05-03 20:22 | 25.18067 | 55.49480 | 1984 ft | 153 kts | 300° |
| 2026-05-03 20:23 | 25.18633 | 55.48457 | 1824 ft | 158 kts | 300° |
| 2026-05-03 20:23 | 25.19205 | 55.47425 | 1637 ft | 157 kts | 300° |
| 2026-05-03 20:23 | 25.19758 | 55.46427 | 1412 ft | 147 kts | 301° |
| 2026-05-03 20:23 | 25.20280 | 55.45486 | 1261 ft | 142 kts | 300° |
| 2026-05-03 20:24 | 25.20798 | 55.44546 | 1055 ft | 143 kts | 300° |
| 2026-05-03 20:24 | 25.21321 | 55.43595 | 897 ft | 146 kts | 300° |
| 2026-05-03 20:24 | 25.21858 | 55.42630 | 710 ft | 149 kts | 301° |
| 2026-05-03 20:24 | 25.22412 | 55.41630 | 528 ft | 157 kts | 301° |
| 2026-05-03 20:25 | 25.22989 | 55.40592 | 324 ft | 158 kts | 301° |
| 2026-05-03 20:25 | 25.23555 | 55.39550 | 92 ft | 156 kts | 301° |
| 2026-05-03 20:25 | 25.24072 | 55.38612 | 29 ft | 141 kts | 305° |
| 2026-05-03 20:25 | 25.24690 | 55.37529 | 553 ft | 180 kts | 301° |
| 2026-05-03 20:26 | 25.25277 | 55.36369 | 2115 ft | 170 kts | 297° |
| 2026-05-03 20:26 | 25.25862 | 55.35116 | 3193 ft | 201 kts | 297° |
| 2026-05-03 20:26 | 25.26554 | 55.33607 | 4103 ft | 223 kts | 295° |
| 2026-05-03 20:26 | 25.27213 | 55.31821 | 4719 ft | 280 kts | 288° |
| 2026-05-03 20:27 | 25.27742 | 55.29787 | 4938 ft | 263 kts | 286° |
| 2026-05-03 20:27 | 25.28181 | 55.27919 | 4811 ft | 254 kts | 285° |
| 2026-05-03 20:27 | 25.28642 | 55.25999 | 4309 ft | 257 kts | 283° |
| 2026-05-03 20:27 | 25.28668 | 55.24110 | 4238 ft | 244 kts | 257° |
| 2026-05-03 20:28 | 25.27852 | 55.22496 | 3985 ft | 244 kts | 227° |
| 2026-05-03 20:28 | 25.26384 | 55.21567 | 3749 ft | 249 kts | 197° |
| 2026-05-03 20:28 | 25.24626 | 55.21575 | 3532 ft | 261 kts | 166° |
| 2026-05-03 20:28 | 25.23029 | 55.22548 | 3323 ft | 268 kts | 137° |
| 2026-05-03 20:29 | 25.22228 | 55.23583 | 3181 ft | 269 kts | 126° |
| 2026-05-03 20:29 | 25.21192 | 55.25290 | 3069 ft | 264 kts | 123° |
| 2026-05-03 20:29 | 25.20212 | 55.26993 | 3023 ft | 262 kts | 123° |
| 2026-05-03 20:29 | 25.19239 | 55.28712 | 2979 ft | 267 kts | 122° |
| 2026-05-03 20:30 | 25.18246 | 55.30475 | 2764 ft | 272 kts | 122° |
| 2026-05-03 20:30 | 25.17276 | 55.32264 | 2467 ft | 272 kts | 119° |
| 2026-05-03 20:30 | 25.16408 | 55.34092 | 2197 ft | 263 kts | 117° |
| 2026-05-03 20:30 | 25.15593 | 55.35860 | 1995 ft | 253 kts | 117° |
| 2026-05-03 20:31 | 25.14824 | 55.37541 | 1978 ft | 238 kts | 117° |
| 2026-05-03 20:31 | 25.14099 | 55.39133 | 1974 ft | 230 kts | 117° |
| 2026-05-03 20:31 | 25.13375 | 55.40727 | 1972 ft | 233 kts | 117° |
| 2026-05-03 20:31 | 25.12653 | 55.42324 | 1965 ft | 231 kts | 117° |
| 2026-05-03 20:32 | 25.11938 | 55.43907 | 1964 ft | 230 kts | 117° |
| 2026-05-03 20:32 | 25.11230 | 55.45478 | 1965 ft | 227 kts | 117° |
| 2026-05-03 20:32 | 25.10528 | 55.47027 | 1974 ft | 225 kts | 117° |
| 2026-05-03 20:32 | 25.09841 | 55.48579 | 1975 ft | 223 kts | 111° |
| 2026-05-03 20:33 | 25.09663 | 55.50257 | 1974 ft | 221 kts | 75° |
| 2026-05-03 20:33 | 25.10319 | 55.51678 | 2019 ft | 205 kts | 41° |
| 2026-05-03 20:33 | 25.11397 | 55.52690 | 1989 ft | 201 kts | 33° |
| 2026-05-03 20:33 | 25.12598 | 55.53372 | 1971 ft | 191 kts | 4° |
| 2026-05-03 20:34 | 25.13867 | 55.53197 | 1989 ft | 183 kts | 335° |
| 2026-05-03 20:34 | 25.15041 | 55.52628 | 1985 ft | 185 kts | 332° |
| 2026-05-03 20:34 | 25.16155 | 55.52027 | 1980 ft | 170 kts | 323° |
| 2026-05-03 20:34 | 25.16904 | 55.51113 | 1980 ft | 156 kts | 304° |
| 2026-05-03 20:35 | 25.17586 | 55.50187 | 1967 ft | 154 kts | 306° |
| 2026-05-03 20:35 | 25.18195 | 55.49218 | 1957 ft | 156 kts | 301° |
| 2026-05-03 20:35 | 25.18780 | 55.48188 | 1747 ft | 158 kts | 300° |
| 2026-05-03 20:35 | 25.19348 | 55.47168 | 1548 ft | 152 kts | 300° |
| 2026-05-03 20:36 | 25.19874 | 55.46219 | 1360 ft | 142 kts | 300° |
| 2026-05-03 20:36 | 25.20388 | 55.45289 | 1205 ft | 143 kts | 300° |
| 2026-05-03 20:36 | 25.20909 | 55.44341 | 1021 ft | 145 kts | 301° |
| 2026-05-03 20:36 | 25.21441 | 55.43378 | 835 ft | 148 kts | 300° |
| 2026-05-03 20:37 | 25.21988 | 55.42395 | 637 ft | 152 kts | 301° |
| 2026-05-03 20:37 | 25.22544 | 55.41389 | 462 ft | 155 kts | 300° |
| 2026-05-03 20:37 | 25.23098 | 55.40393 | 273 ft | 154 kts | 300° |
| 2026-05-03 20:37 | 25.23648 | 55.39388 | 54 ft | 151 kts | 300° |
| 2026-05-03 20:38 | 25.24148 | 55.38475 | 31 ft | 125 kts | 303° |
| 2026-05-03 20:38 | 25.24522 | 55.37803 | 28 ft | 80 kts | 301° |
| 2026-05-03 20:38 | 25.24728 | 55.37428 | 27 ft | 40 kts | 297° |
| 2026-05-03 20:38 | 25.24773 | 55.37271 | 29 ft | 12 kts | 280° |
| 2026-05-03 20:39 | 25.24784 | 55.37161 | 29 ft | 18 kts | 272° |
| 2026-05-03 20:39 | 25.24791 | 55.36991 | 27 ft | 25 kts | 281° |
| 2026-05-03 20:39 | 25.24766 | 55.36854 | 26 ft | 20 kts | 214° |
| 2026-05-03 20:39 | 25.24651 | 55.36776 | 30 ft | 20 kts | 211° |
| 2026-05-03 20:40 | 25.24554 | 55.36709 | 30 ft | 11 kts | 216° |
| 2026-05-03 20:40 | 25.24537 | 55.36664 | 30 ft | 4 kts | 303° |
| 2026-05-03 20:40 | 25.24565 | 55.36640 | 31 ft | 6 kts | 315° |
| 2026-05-03 20:40 | 25.24581 | 55.36622 | 27 ft | 1 kts | 314° |
| 2026-05-03 20:41 | 25.24585 | 55.36617 | 26 ft | 0 kts | 313° |